Terminal Aerodrome Forecast
Issued by NWS

Home | Current Version | Previous Version | Text Only | Print | Product List | Glossary On
Versions: 1 2 3 4 5 6 7 8 9 10 11 12 13 14 15 16 17 18 19 20 21 22 23 24 25 26 27 28 29 30 31 32
000
FTUS43 KDLH 232243 AAD
TAFBRD
TAF AMD
KBRD 232243Z 2323/2418 35006KT P6SM -RA BKN010 BKN120
     FM240100 04005KT 4SM -SHRA BR VCTS SCT010 OVC020CB
     FM240600 09004KT 4SM BR SCT007 OVC010
     FM240900 15004KT 4SM BR SCT007 OVC010 WS020/21035KT
     FM241400 18010KT P6SM SCT250=

USA.gov is the U.S. government's official web portal to all federal, state and local government web resources and services.